createdAt,value
2022-08-17T00:02:25.174Z,0.13
2022-08-17T00:07:19.524Z,0.12
2022-08-17T00:12:35.579Z,0.03
2022-08-17T00:17:19.514Z,0.03
2022-08-17T00:22:33.362Z,0.02
2022-08-17T00:27:19.524Z,0.07
2022-08-17T00:33:10.672Z,0.07
2022-08-17T00:37:19.557Z,0.15
2022-08-17T00:42:19.552Z,0.09
2022-08-17T00:47:19.517Z,0.16
2022-08-17T00:52:19.543Z,0.16
2022-08-17T00:57:19.556Z,0.04
2022-08-17T01:02:19.583Z,0.07
2022-08-17T01:07:19.563Z,0.08
2022-08-17T01:12:19.557Z,0.06
2022-08-17T01:17:19.798Z,0.14
2022-08-17T01:22:19.568Z,0.12
2022-08-17T01:27:20.517Z,0.06
2022-08-17T01:32:19.565Z,0.09
2022-08-17T01:37:19.567Z,0.03
2022-08-17T01:42:19.579Z,0.06
2022-08-17T01:47:19.568Z,0.09
2022-08-17T01:52:19.535Z,0.02
2022-08-17T01:57:19.614Z,0.12
2022-08-17T02:02:30.232Z,0.07
2022-08-17T02:07:19.615Z,0.15
2022-08-17T02:12:38.709Z,0.03
2022-08-17T02:17:19.617Z,0.09
2022-08-17T02:22:19.631Z,0.06
2022-08-17T02:27:19.638Z,0.12
2022-08-17T02:32:20.680Z,0.09
2022-08-17T02:37:19.630Z,0.03
2022-08-17T02:42:19.648Z,0
2022-08-17T02:47:19.624Z,0.04
2022-08-17T02:52:19.633Z,0.07
2022-08-17T02:57:19.655Z,0.09
2022-08-17T03:02:19.644Z,0.04
2022-08-17T03:07:19.635Z,0.02
2022-08-17T03:12:19.828Z,0.08
2022-08-17T03:17:19.654Z,0.08
2022-08-17T03:22:34.712Z,0.05
2022-08-17T03:27:19.662Z,0.01
2022-08-17T03:32:19.622Z,0.08
2022-08-17T03:37:19.635Z,0.06
2022-08-17T03:42:31.215Z,0.1
2022-08-17T03:47:19.659Z,0.07
2022-08-17T03:52:19.660Z,0.1
2022-08-17T03:57:19.643Z,0.06
2022-08-17T04:02:19.668Z,0.02
2022-08-17T04:07:19.654Z,0.06
2022-08-17T04:12:19.670Z,0.12
2022-08-17T04:17:19.641Z,0
2022-08-17T04:22:31.483Z,0.04
2022-08-17T04:27:19.726Z,0.14
2022-08-17T04:32:24.513Z,0.07
2022-08-17T04:37:19.829Z,0.09
2022-08-17T04:42:19.690Z,0.11
2022-08-17T04:47:19.714Z,0.17
2022-08-17T04:52:29.638Z,0.19
2022-08-17T04:57:19.697Z,0.07
2022-08-17T05:02:19.699Z,0.1
2022-08-17T05:07:23.147Z,0.06
2022-08-17T05:12:19.706Z,0.1
2022-08-17T05:17:19.714Z,0.06
2022-08-17T05:22:19.694Z,0.07
2022-08-17T05:27:19.745Z,0.1
2022-08-17T05:32:37.476Z,0.02
2022-08-17T05:37:20.049Z,0.05
2022-08-17T05:42:19.737Z,0.02
2022-08-17T05:47:19.717Z,0
2022-08-17T05:52:20.191Z,0.1
2022-08-17T05:57:20.922Z,0.06
2022-08-17T06:02:19.726Z,0.06
2022-08-17T06:07:19.743Z,0.09
2022-08-17T06:12:20.160Z,0.16
2022-08-17T06:17:19.732Z,0.03
2022-08-17T06:22:19.735Z,0.16
2022-08-17T06:27:19.777Z,0.06
2022-08-17T06:32:19.730Z,0.16
2022-08-17T06:37:19.743Z,0
2022-08-17T06:42:54.421Z,0.14
2022-08-17T06:47:28.287Z,0
2022-08-17T06:52:42.143Z,0.13
2022-08-17T06:57:19.746Z,0.02
2022-08-17T07:02:19.729Z,0.03
2022-08-17T07:07:20.041Z,0.09
2022-08-17T07:12:19.711Z,0.06
2022-08-17T07:17:19.722Z,0.13
2022-08-17T07:22:19.721Z,0.09
2022-08-17T07:27:19.768Z,0.11
2022-08-17T07:32:19.698Z,0.05
2022-08-17T07:37:19.709Z,0.1
2022-08-17T07:42:19.733Z,0.09
2022-08-17T07:47:19.678Z,0.12
2022-08-17T07:52:24.393Z,0.13
2022-08-17T07:57:19.772Z,0.15
2022-08-17T08:02:19.811Z,0.06
2022-08-17T08:07:19.790Z,0.11
2022-08-17T08:12:19.779Z,0.1
2022-08-17T08:17:19.771Z,0.02
2022-08-17T08:22:19.769Z,0.08
2022-08-17T08:27:19.819Z,0.1
2022-08-17T08:32:19.794Z,0.09
2022-08-17T08:37:27.602Z,0.02
2022-08-17T08:42:19.920Z,0.13
2022-08-17T08:47:19.800Z,0.04
2022-08-17T08:52:19.882Z,0.05
2022-08-17T08:57:25.302Z,0.21
2022-08-17T09:02:19.832Z,0.01
2022-08-17T09:07:19.815Z,0.13
2022-08-17T09:12:19.871Z,0.12
2022-08-17T09:17:19.765Z,0.06
2022-08-17T09:22:19.848Z,0.09
2022-08-17T09:27:19.807Z,0.08
2022-08-17T09:32:19.810Z,0.06
2022-08-17T09:37:19.784Z,0.07
2022-08-17T09:42:19.794Z,0.1
2022-08-17T09:47:19.795Z,0.04
2022-08-17T09:52:19.791Z,0.05
2022-08-17T09:57:29.620Z,0.07
2022-08-17T10:02:19.793Z,0.08
2022-08-17T10:07:19.794Z,0.06
2022-08-17T10:12:19.875Z,0.12
2022-08-17T10:17:19.808Z,0.14
2022-08-17T10:22:33.056Z,0.07
2022-08-17T10:27:19.802Z,0.06
2022-08-17T10:32:19.844Z,0.16
2022-08-17T10:37:19.774Z,0.1
2022-08-17T10:42:30.193Z,0.15
2022-08-17T10:47:19.782Z,0.09
2022-08-17T10:52:19.800Z,0.1
2022-08-17T10:57:19.836Z,0.09
2022-08-17T11:02:19.810Z,0.18
2022-08-17T11:07:19.816Z,0.11
2022-08-17T11:12:19.810Z,0.08
2022-08-17T11:17:19.799Z,0.09
2022-08-17T11:22:19.838Z,0.16
2022-08-17T11:27:19.831Z,0.06
2022-08-17T11:32:19.821Z,0.09
2022-08-17T11:37:19.789Z,0.15
2022-08-17T11:42:19.959Z,0.05
2022-08-17T11:47:19.842Z,0.13
2022-08-17T11:52:19.828Z,0.1
2022-08-17T11:57:19.831Z,0.2
2022-08-17T12:02:19.849Z,0.24
2022-08-17T12:07:19.800Z,0.11
2022-08-17T12:12:19.889Z,0.11
2022-08-17T12:17:40.072Z,0.21
2022-08-17T12:22:19.851Z,0.16
2022-08-17T12:27:19.855Z,0.2
2022-08-17T12:32:19.850Z,0.2
2022-08-17T12:37:19.845Z,0.13
2022-08-17T12:42:19.889Z,0.24
2022-08-17T12:47:22.503Z,0.14
2022-08-17T12:52:19.839Z,0.28
2022-08-17T12:57:19.829Z,0.18
2022-08-17T13:02:19.870Z,0.15
2022-08-17T13:07:19.852Z,0.17
2022-08-17T13:12:19.904Z,0.24
2022-08-17T13:17:19.870Z,0.18
2022-08-17T13:22:19.854Z,0.15
2022-08-17T13:27:19.875Z,0.21
2022-08-17T13:32:20.041Z,0.24
2022-08-17T13:37:19.869Z,0.22
2022-08-17T13:42:22.335Z,0.2
2022-08-17T13:47:19.882Z,0.34
2022-08-17T13:52:19.873Z,0.31
2022-08-17T13:57:19.891Z,0.19
2022-08-17T14:02:19.896Z,0.26
2022-08-17T14:07:19.905Z,0.34
2022-08-17T14:12:19.933Z,0.3
2022-08-17T14:17:19.885Z,0.23
2022-08-17T14:22:19.914Z,0.3
2022-08-17T14:27:19.920Z,0.28
2022-08-17T14:32:19.911Z,0.35
2022-08-17T14:37:19.907Z,0.36
2022-08-17T14:42:19.919Z,0.42
2022-08-17T14:47:19.882Z,0.37
2022-08-17T14:52:19.916Z,0.37
2022-08-17T14:57:23.208Z,0.4
2022-08-17T15:02:20.124Z,0.51
2022-08-17T15:07:19.924Z,0.36
2022-08-17T15:12:19.918Z,0.39
2022-08-17T15:17:19.941Z,0.39
2022-08-17T15:22:19.941Z,0.43
2022-08-17T15:27:25.758Z,0.43
2022-08-17T15:32:19.918Z,0.41
2022-08-17T15:37:19.935Z,0.4
2022-08-17T15:42:19.945Z,0.41
2022-08-17T15:47:19.955Z,0.48
2022-08-17T15:52:19.948Z,0.41
2022-08-17T15:57:19.939Z,0.41
2022-08-17T16:03:02.156Z,0.43
2022-08-17T16:07:23.069Z,0.38
2022-08-17T16:12:19.962Z,0.42
2022-08-17T16:17:39.472Z,0.52
2022-08-17T16:22:19.927Z,0.3
2022-08-17T16:27:20.011Z,0.35
2022-08-17T16:32:19.953Z,0.44
2022-08-17T16:37:19.970Z,0.43
2022-08-17T16:42:19.981Z,0.38
2022-08-17T16:47:19.977Z,0.29
2022-08-17T16:52:32.234Z,0.28
2022-08-17T16:57:20.002Z,0.27
2022-08-17T17:02:19.973Z,0.3
2022-08-17T17:07:19.979Z,0.3
2022-08-17T17:12:19.973Z,0.41
2022-08-17T17:17:19.971Z,0.39
2022-08-17T17:22:19.994Z,0.32
2022-08-17T17:27:20.027Z,0.35
2022-08-17T17:32:19.995Z,0.41
2022-08-17T17:37:19.983Z,0.47
2022-08-17T17:42:20.421Z,0.34
2022-08-17T17:47:19.993Z,0.17
2022-08-17T17:52:20.006Z,0.28
2022-08-17T17:57:19.996Z,0.37
2022-08-17T18:02:20.101Z,0.2
2022-08-17T18:07:20.033Z,0.29
2022-08-17T18:12:19.999Z,0.19
2022-08-17T18:17:20.055Z,0.31
2022-08-17T18:22:20.031Z,0.33
2022-08-17T18:27:20.027Z,0.23
2022-08-17T18:32:20.038Z,0.23
2022-08-17T18:37:20.027Z,0.3
2022-08-17T18:42:20.018Z,0.23
2022-08-17T18:47:20.020Z,0.3
2022-08-17T18:52:20.039Z,0.29
2022-08-17T18:57:20.039Z,0.19
2022-08-17T19:02:31.343Z,0.28
2022-08-17T19:07:20.063Z,0.19
2022-08-17T19:12:22.589Z,0.21
2022-08-17T19:17:20.011Z,0.2
2022-08-17T19:22:27.020Z,0.3
2022-08-17T19:27:20.030Z,0.33
2022-08-17T19:32:20.048Z,0.2
2022-08-17T19:37:20.056Z,0.24
2022-08-17T19:42:20.046Z,0.22
2022-08-17T19:47:36.615Z,0.15
2022-08-17T19:52:20.047Z,0.33
2022-08-17T19:57:20.063Z,0.19
2022-08-17T20:02:20.043Z,0.24
2022-08-17T20:07:20.042Z,0.28
2022-08-17T20:12:20.035Z,0.33
2022-08-17T20:17:20.029Z,0.25
2022-08-17T20:22:20.047Z,0.31
2022-08-17T20:27:20.087Z,0.31
2022-08-17T20:32:20.035Z,0.29
2022-08-17T20:37:20.071Z,0.2
2022-08-17T20:42:20.076Z,0.2
2022-08-17T20:47:22.737Z,0.25
2022-08-17T20:52:20.073Z,0.19
2022-08-17T20:57:20.097Z,0.22
2022-08-17T21:02:20.106Z,0.24
2022-08-17T21:07:20.089Z,0.28
2022-08-17T21:12:20.083Z,0.24
2022-08-17T21:17:20.108Z,0.29
2022-08-17T21:22:20.155Z,0.27
2022-08-17T21:27:20.099Z,0.31
2022-08-17T21:32:23.712Z,0.19
2022-08-17T21:37:20.081Z,0.1
2022-08-17T21:42:20.061Z,0.17
2022-08-17T21:47:20.096Z,0.23
2022-08-17T21:52:20.109Z,0.16
2022-08-17T21:57:20.126Z,0.25
2022-08-17T22:02:20.143Z,0.25
2022-08-17T22:07:20.148Z,0.25
2022-08-17T22:12:20.164Z,0.16
2022-08-17T22:17:20.123Z,0.23
2022-08-17T22:22:20.190Z,0.32
2022-08-17T22:27:20.167Z,0.24
2022-08-17T22:32:20.149Z,0.22
2022-08-17T22:37:20.185Z,0.17
2022-08-17T22:42:20.159Z,0.22
2022-08-17T22:47:20.184Z,0.2
2022-08-17T22:52:20.176Z,0.14
2022-08-17T22:57:20.162Z,0.2
2022-08-17T23:02:20.219Z,0.17
2022-08-17T23:07:20.174Z,0.22
2022-08-17T23:12:20.189Z,0.21
2022-08-17T23:17:20.185Z,0.21
2022-08-17T23:22:20.222Z,0.14
2022-08-17T23:27:20.205Z,0.22
2022-08-17T23:32:20.157Z,0.13
2022-08-17T23:37:20.209Z,0.15
2022-08-17T23:42:20.203Z,0.17
2022-08-17T23:47:20.177Z,0.17
2022-08-17T23:52:20.153Z,0.14
2022-08-17T23:57:20.189Z,0.18
